sensor_id;sensor_type;location;lat;lon;timestamp;P1;durP1;ratioP1;P2;durP2;ratioP2
21543;SDS011;10933;50.754;11.508;2022-11-27T00:01:49;268.20;;;18.70;;
21543;SDS011;10933;50.754;11.508;2022-11-27T00:04:15;265.73;;;19.70;;
21543;SDS011;10933;50.754;11.508;2022-11-27T00:06:41;234.77;;;20.80;;
21543;SDS011;10933;50.754;11.508;2022-11-27T00:09:10;240.07;;;24.90;;
21543;SDS011;10933;50.754;11.508;2022-11-27T00:11:39;157.90;;;19.10;;
21543;SDS011;10933;50.754;11.508;2022-11-27T00:14:05;237.07;;;20.77;;
21543;SDS011;10933;50.754;11.508;2022-11-27T00:16:34;259.90;;;20.37;;
21543;SDS011;10933;50.754;11.508;2022-11-27T00:19:01;82.80;;;15.60;;
21543;SDS011;10933;50.754;11.508;2022-11-27T00:21:29;292.67;;;23.80;;
21543;SDS011;10933;50.754;11.508;2022-11-27T00:23:58;121.73;;;23.00;;
21543;SDS011;10933;50.754;11.508;2022-11-27T00:26:26;234.43;;;26.80;;
21543;SDS011;10933;50.754;11.508;2022-11-27T00:28:53;220.00;;;26.77;;
21543;SDS011;10933;50.754;11.508;2022-11-27T00:31:21;270.03;;;25.90;;
21543;SDS011;10933;50.754;11.508;2022-11-27T00:33:57;166.93;;;22.67;;
21543;SDS011;10933;50.754;11.508;2022-11-27T00:36:26;110.27;;;20.70;;
21543;SDS011;10933;50.754;11.508;2022-11-27T00:38:53;165.50;;;22.87;;
21543;SDS011;10933;50.754;11.508;2022-11-27T00:41:21;144.37;;;18.53;;
21543;SDS011;10933;50.754;11.508;2022-11-27T00:43:49;171.47;;;18.23;;
21543;SDS011;10933;50.754;11.508;2022-11-27T00:46:20;207.37;;;17.13;;
21543;SDS011;10933;50.754;11.508;2022-11-27T00:48:48;153.47;;;19.00;;
21543;SDS011;10933;50.754;11.508;2022-11-27T00:51:19;129.23;;;19.70;;
21543;SDS011;10933;50.754;11.508;2022-11-27T00:53:47;145.40;;;20.03;;
21543;SDS011;10933;50.754;11.508;2022-11-27T00:56:14;132.07;;;19.47;;
21543;SDS011;10933;50.754;11.508;2022-11-27T00:58:42;143.50;;;20.57;;
21543;SDS011;10933;50.754;11.508;2022-11-27T01:01:12;119.67;;;19.47;;
21543;SDS011;10933;50.754;11.508;2022-11-27T01:03:41;252.27;;;25.50;;
21543;SDS011;10933;50.754;11.508;2022-11-27T01:06:08;132.03;;;19.90;;
21543;SDS011;10933;50.754;11.508;2022-11-27T01:08:34;90.17;;;18.00;;
21543;SDS011;10933;50.754;11.508;2022-11-27T01:11:00;152.77;;;19.90;;
21543;SDS011;10933;50.754;11.508;2022-11-27T01:13:31;272.07;;;22.53;;
21543;SDS011;10933;50.754;11.508;2022-11-27T01:18:34;175.00;;;20.23;;
21543;SDS011;10933;50.754;11.508;2022-11-27T01:21:02;293.90;;;23.33;;
21543;SDS011;10933;50.754;11.508;2022-11-27T01:23:29;320.80;;;22.77;;
21543;SDS011;10933;50.754;11.508;2022-11-27T01:25:56;174.70;;;20.27;;
21543;SDS011;10933;50.754;11.508;2022-11-27T01:28:24;188.60;;;19.57;;
21543;SDS011;10933;50.754;11.508;2022-11-27T01:30:50;248.13;;;21.03;;
21543;SDS011;10933;50.754;11.508;2022-11-27T01:33:17;103.63;;;18.80;;
21543;SDS011;10933;50.754;11.508;2022-11-27T01:35:51;135.03;;;19.40;;
21543;SDS011;10933;50.754;11.508;2022-11-27T01:38:19;198.97;;;20.67;;
21543;SDS011;10933;50.754;11.508;2022-11-27T01:40:46;162.37;;;19.33;;
21543;SDS011;10933;50.754;11.508;2022-11-27T01:43:15;141.27;;;18.97;;
21543;SDS011;10933;50.754;11.508;2022-11-27T01:45:42;139.17;;;19.73;;
21543;SDS011;10933;50.754;11.508;2022-11-27T01:48:10;87.23;;;17.47;;
21543;SDS011;10933;50.754;11.508;2022-11-27T01:50:38;102.87;;;17.80;;
21543;SDS011;10933;50.754;11.508;2022-11-27T01:53:08;106.63;;;17.00;;
21543;SDS011;10933;50.754;11.508;2022-11-27T01:55:40;251.30;;;20.53;;
21543;SDS011;10933;50.754;11.508;2022-11-27T01:58:19;173.07;;;18.27;;
21543;SDS011;10933;50.754;11.508;2022-11-27T02:00:48;158.87;;;19.10;;
21543;SDS011;10933;50.754;11.508;2022-11-27T02:03:14;319.90;;;24.77;;
21543;SDS011;10933;50.754;11.508;2022-11-27T02:05:40;262.83;;;21.83;;
21543;SDS011;10933;50.754;11.508;2022-11-27T02:08:10;54.97;;;14.73;;
21543;SDS011;10933;50.754;11.508;2022-11-27T02:10:51;96.87;;;18.20;;
21543;SDS011;10933;50.754;11.508;2022-11-27T02:15:50;163.43;;;18.43;;
21543;SDS011;10933;50.754;11.508;2022-11-27T02:18:21;119.53;;;17.10;;
21543;SDS011;10933;50.754;11.508;2022-11-27T02:21:07;159.40;;;18.43;;
21543;SDS011;10933;50.754;11.508;2022-11-27T02:26:21;201.93;;;18.50;;
21543;SDS011;10933;50.754;11.508;2022-11-27T02:29:16;138.40;;;16.20;;
21543;SDS011;10933;50.754;11.508;2022-11-27T02:31:57;110.23;;;14.20;;
21543;SDS011;10933;50.754;11.508;2022-11-27T02:37:40;122.17;;;14.63;;
21543;SDS011;10933;50.754;11.508;2022-11-27T02:43:08;104.67;;;14.20;;
21543;SDS011;10933;50.754;11.508;2022-11-27T02:45:42;130.47;;;14.67;;
21543;SDS011;10933;50.754;11.508;2022-11-27T02:48:14;235.83;;;20.50;;
21543;SDS011;10933;50.754;11.508;2022-11-27T02:50:44;217.43;;;16.13;;
21543;SDS011;10933;50.754;11.508;2022-11-27T02:53:22;126.03;;;14.23;;
21543;SDS011;10933;50.754;11.508;2022-11-27T02:55:53;165.40;;;15.47;;
21543;SDS011;10933;50.754;11.508;2022-11-27T02:58:23;100.00;;;14.47;;
21543;SDS011;10933;50.754;11.508;2022-11-27T03:00:53;226.70;;;17.37;;
21543;SDS011;10933;50.754;11.508;2022-11-27T03:03:25;134.63;;;16.80;;
21543;SDS011;10933;50.754;11.508;2022-11-27T03:06:08;122.10;;;14.40;;
21543;SDS011;10933;50.754;11.508;2022-11-27T03:08:48;221.00;;;16.67;;
21543;SDS011;10933;50.754;11.508;2022-11-27T03:11:23;217.00;;;19.13;;
21543;SDS011;10933;50.754;11.508;2022-11-27T03:13:54;86.47;;;14.20;;
21543;SDS011;10933;50.754;11.508;2022-11-27T03:22:05;213.73;;;15.87;;
21543;SDS011;10933;50.754;11.508;2022-11-27T03:24:35;120.17;;;13.40;;
21543;SDS011;10933;50.754;11.508;2022-11-27T03:27:02;113.23;;;16.10;;
21543;SDS011;10933;50.754;11.508;2022-11-27T03:32:05;140.60;;;13.63;;
21543;SDS011;10933;50.754;11.508;2022-11-27T03:34:32;154.17;;;16.57;;
21543;SDS011;10933;50.754;11.508;2022-11-27T03:36:59;185.97;;;15.00;;
21543;SDS011;10933;50.754;11.508;2022-11-27T03:39:26;126.90;;;15.30;;
21543;SDS011;10933;50.754;11.508;2022-11-27T03:41:57;187.57;;;15.23;;
21543;SDS011;10933;50.754;11.508;2022-11-27T03:56:12;143.80;;;15.27;;
21543;SDS011;10933;50.754;11.508;2022-11-27T03:58:48;157.93;;;15.10;;
21543;SDS011;10933;50.754;11.508;2022-11-27T04:01:20;64.70;;;12.70;;
21543;SDS011;10933;50.754;11.508;2022-11-27T04:03:49;259.53;;;16.80;;
21543;SDS011;10933;50.754;11.508;2022-11-27T04:06:15;225.20;;;16.73;;
21543;SDS011;10933;50.754;11.508;2022-11-27T04:08:41;205.50;;;15.50;;
21543;SDS011;10933;50.754;11.508;2022-11-27T04:11:09;248.60;;;15.80;;
21543;SDS011;10933;50.754;11.508;2022-11-27T04:13:36;86.83;;;11.97;;
21543;SDS011;10933;50.754;11.508;2022-11-27T04:16:02;180.93;;;14.03;;
21543;SDS011;10933;50.754;11.508;2022-11-27T04:18:29;147.20;;;14.80;;
21543;SDS011;10933;50.754;11.508;2022-11-27T04:20:55;87.60;;;13.77;;
21543;SDS011;10933;50.754;11.508;2022-11-27T04:23:22;113.53;;;15.20;;
21543;SDS011;10933;50.754;11.508;2022-11-27T04:25:48;91.57;;;12.27;;
21543;SDS011;10933;50.754;11.508;2022-11-27T04:28:17;107.70;;;12.20;;
21543;SDS011;10933;50.754;11.508;2022-11-27T04:30:43;103.60;;;14.57;;
21543;SDS011;10933;50.754;11.508;2022-11-27T04:33:14;95.23;;;13.30;;
21543;SDS011;10933;50.754;11.508;2022-11-27T04:35:40;122.90;;;13.10;;
21543;SDS011;10933;50.754;11.508;2022-11-27T04:38:07;93.83;;;16.40;;
21543;SDS011;10933;50.754;11.508;2022-11-27T04:40:33;135.97;;;13.70;;
21543;SDS011;10933;50.754;11.508;2022-11-27T04:42:59;132.83;;;14.37;;
21543;SDS011;10933;50.754;11.508;2022-11-27T04:45:28;154.77;;;14.47;;
21543;SDS011;10933;50.754;11.508;2022-11-27T04:47:55;152.17;;;20.73;;
21543;SDS011;10933;50.754;11.508;2022-11-27T04:50:21;161.03;;;14.33;;
21543;SDS011;10933;50.754;11.508;2022-11-27T04:52:47;218.73;;;15.50;;
21543;SDS011;10933;50.754;11.508;2022-11-27T04:55:13;84.93;;;14.03;;
21543;SDS011;10933;50.754;11.508;2022-11-27T04:57:40;99.40;;;13.17;;
21543;SDS011;10933;50.754;11.508;2022-11-27T05:00:06;143.23;;;14.70;;
21543;SDS011;10933;50.754;11.508;2022-11-27T05:02:33;132.07;;;16.50;;
21543;SDS011;10933;50.754;11.508;2022-11-27T05:04:59;55.73;;;12.77;;
21543;SDS011;10933;50.754;11.508;2022-11-27T05:07:29;106.40;;;15.67;;
21543;SDS011;10933;50.754;11.508;2022-11-27T05:09:55;74.47;;;14.87;;
21543;SDS011;10933;50.754;11.508;2022-11-27T05:12:22;76.93;;;12.30;;
21543;SDS011;10933;50.754;11.508;2022-11-27T05:14:54;137.07;;;18.07;;
21543;SDS011;10933;50.754;11.508;2022-11-27T05:17:20;105.00;;;15.93;;
21543;SDS011;10933;50.754;11.508;2022-11-27T05:19:46;100.40;;;12.43;;
21543;SDS011;10933;50.754;11.508;2022-11-27T05:22:12;85.20;;;12.53;;
21543;SDS011;10933;50.754;11.508;2022-11-27T05:24:38;99.50;;;12.33;;
21543;SDS011;10933;50.754;11.508;2022-11-27T05:27:05;186.83;;;17.20;;
21543;SDS011;10933;50.754;11.508;2022-11-27T05:29:37;68.67;;;13.37;;
21543;SDS011;10933;50.754;11.508;2022-11-27T05:32:04;148.10;;;16.60;;
21543;SDS011;10933;50.754;11.508;2022-11-27T05:34:30;48.70;;;12.13;;
21543;SDS011;10933;50.754;11.508;2022-11-27T05:36:56;58.67;;;11.13;;
21543;SDS011;10933;50.754;11.508;2022-11-27T05:39:23;84.80;;;12.10;;
21543;SDS011;10933;50.754;11.508;2022-11-27T05:41:49;84.07;;;12.93;;
21543;SDS011;10933;50.754;11.508;2022-11-27T05:44:15;47.17;;;11.63;;
21543;SDS011;10933;50.754;11.508;2022-11-27T05:46:41;22.90;;;10.93;;
21543;SDS011;10933;50.754;11.508;2022-11-27T05:49:09;70.07;;;11.70;;
21543;SDS011;10933;50.754;11.508;2022-11-27T05:51:40;45.00;;;10.87;;
21543;SDS011;10933;50.754;11.508;2022-11-27T05:54:07;80.00;;;12.80;;
21543;SDS011;10933;50.754;11.508;2022-11-27T05:56:42;118.87;;;13.90;;
21543;SDS011;10933;50.754;11.508;2022-11-27T05:59:08;60.70;;;11.90;;
21543;SDS011;10933;50.754;11.508;2022-11-27T06:01:35;72.27;;;14.90;;
21543;SDS011;10933;50.754;11.508;2022-11-27T06:04:01;103.17;;;13.60;;
21543;SDS011;10933;50.754;11.508;2022-11-27T06:06:27;63.93;;;11.53;;
21543;SDS011;10933;50.754;11.508;2022-11-27T06:08:53;105.50;;;17.17;;
21543;SDS011;10933;50.754;11.508;2022-11-27T06:11:20;51.67;;;14.73;;
21543;SDS011;10933;50.754;11.508;2022-11-27T06:13:47;45.43;;;12.47;;
21543;SDS011;10933;50.754;11.508;2022-11-27T06:16:15;81.43;;;13.17;;
21543;SDS011;10933;50.754;11.508;2022-11-27T06:18:44;63.43;;;12.60;;
21543;SDS011;10933;50.754;11.508;2022-11-27T06:21:13;60.30;;;12.87;;
21543;SDS011;10933;50.754;11.508;2022-11-27T06:23:40;48.27;;;14.90;;
21543;SDS011;10933;50.754;11.508;2022-11-27T06:26:11;61.23;;;13.17;;
21543;SDS011;10933;50.754;11.508;2022-11-27T06:28:39;47.30;;;12.63;;
21543;SDS011;10933;50.754;11.508;2022-11-27T06:31:07;46.53;;;15.13;;
21543;SDS011;10933;50.754;11.508;2022-11-27T06:33:34;34.73;;;14.07;;
21543;SDS011;10933;50.754;11.508;2022-11-27T06:36:01;66.03;;;14.23;;
21543;SDS011;10933;50.754;11.508;2022-11-27T06:38:28;48.57;;;11.67;;
21543;SDS011;10933;50.754;11.508;2022-11-27T06:41:00;89.30;;;12.93;;
21543;SDS011;10933;50.754;11.508;2022-11-27T06:43:34;70.70;;;12.07;;
21543;SDS011;10933;50.754;11.508;2022-11-27T06:46:00;120.57;;;27.03;;
21543;SDS011;10933;50.754;11.508;2022-11-27T06:48:28;79.00;;;14.17;;
21543;SDS011;10933;50.754;11.508;2022-11-27T06:51:01;48.53;;;12.33;;
21543;SDS011;10933;50.754;11.508;2022-11-27T06:53:29;61.50;;;13.20;;
21543;SDS011;10933;50.754;11.508;2022-11-27T06:55:56;89.03;;;14.07;;
21543;SDS011;10933;50.754;11.508;2022-11-27T06:58:23;148.00;;;28.67;;
21543;SDS011;10933;50.754;11.508;2022-11-27T07:00:49;103.27;;;20.67;;
21543;SDS011;10933;50.754;11.508;2022-11-27T07:03:25;118.40;;;22.73;;
21543;SDS011;10933;50.754;11.508;2022-11-27T07:05:52;123.47;;;14.63;;
21543;SDS011;10933;50.754;11.508;2022-11-27T07:08:18;92.23;;;14.77;;
21543;SDS011;10933;50.754;11.508;2022-11-27T07:10:46;56.80;;;14.37;;
21543;SDS011;10933;50.754;11.508;2022-11-27T07:13:12;99.87;;;16.17;;
21543;SDS011;10933;50.754;11.508;2022-11-27T07:15:39;76.53;;;13.93;;
21543;SDS011;10933;50.754;11.508;2022-11-27T07:18:06;95.73;;;17.27;;
21543;SDS011;10933;50.754;11.508;2022-11-27T07:20:32;158.33;;;18.57;;
21543;SDS011;10933;50.754;11.508;2022-11-27T07:22:58;112.33;;;14.50;;
21543;SDS011;10933;50.754;11.508;2022-11-27T07:25:25;153.17;;;14.63;;
21543;SDS011;10933;50.754;11.508;2022-11-27T07:27:51;113.30;;;15.50;;
21543;SDS011;10933;50.754;11.508;2022-11-27T07:30:17;87.80;;;18.47;;
21543;SDS011;10933;50.754;11.508;2022-11-27T07:32:44;330.00;;;22.57;;
21543;SDS011;10933;50.754;11.508;2022-11-27T07:35:11;220.93;;;19.77;;
21543;SDS011;10933;50.754;11.508;2022-11-27T07:37:37;148.63;;;17.80;;
21543;SDS011;10933;50.754;11.508;2022-11-27T07:40:04;71.10;;;13.17;;
21543;SDS011;10933;50.754;11.508;2022-11-27T07:42:31;70.43;;;14.70;;
21543;SDS011;10933;50.754;11.508;2022-11-27T07:44:57;68.00;;;15.57;;
21543;SDS011;10933;50.754;11.508;2022-11-27T07:47:23;50.83;;;13.40;;
21543;SDS011;10933;50.754;11.508;2022-11-27T07:49:49;103.43;;;13.87;;
21543;SDS011;10933;50.754;11.508;2022-11-27T07:52:16;112.90;;;14.53;;
21543;SDS011;10933;50.754;11.508;2022-11-27T07:54:42;91.27;;;12.90;;
21543;SDS011;10933;50.754;11.508;2022-11-27T07:57:08;157.50;;;14.83;;
21543;SDS011;10933;50.754;11.508;2022-11-27T07:59:34;140.23;;;16.33;;
21543;SDS011;10933;50.754;11.508;2022-11-27T08:02:01;118.40;;;17.70;;
21543;SDS011;10933;50.754;11.508;2022-11-27T08:04:27;108.33;;;13.93;;
21543;SDS011;10933;50.754;11.508;2022-11-27T08:06:53;117.70;;;15.63;;
21543;SDS011;10933;50.754;11.508;2022-11-27T08:09:21;81.10;;;13.00;;
21543;SDS011;10933;50.754;11.508;2022-11-27T08:11:47;58.20;;;16.97;;
21543;SDS011;10933;50.754;11.508;2022-11-27T08:14:13;39.13;;;16.33;;
21543;SDS011;10933;50.754;11.508;2022-11-27T08:16:40;57.70;;;12.57;;
21543;SDS011;10933;50.754;11.508;2022-11-27T08:19:06;80.53;;;13.70;;
21543;SDS011;10933;50.754;11.508;2022-11-27T08:21:33;113.50;;;14.50;;
21543;SDS011;10933;50.754;11.508;2022-11-27T08:24:00;79.53;;;11.10;;
21543;SDS011;10933;50.754;11.508;2022-11-27T08:26:26;107.83;;;15.07;;
21543;SDS011;10933;50.754;11.508;2022-11-27T08:28:52;103.77;;;13.97;;
21543;SDS011;10933;50.754;11.508;2022-11-27T08:31:19;107.80;;;20.83;;
21543;SDS011;10933;50.754;11.508;2022-11-27T08:33:46;109.60;;;20.20;;
21543;SDS011;10933;50.754;11.508;2022-11-27T08:36:12;141.90;;;17.40;;
21543;SDS011;10933;50.754;11.508;2022-11-27T08:38:41;52.57;;;11.67;;
21543;SDS011;10933;50.754;11.508;2022-11-27T08:41:07;83.07;;;13.93;;
21543;SDS011;10933;50.754;11.508;2022-11-27T08:43:34;88.07;;;14.03;;
21543;SDS011;10933;50.754;11.508;2022-11-27T08:46:04;55.60;;;12.00;;
21543;SDS011;10933;50.754;11.508;2022-11-27T08:48:30;56.23;;;12.57;;
21543;SDS011;10933;50.754;11.508;2022-11-27T08:50:57;50.00;;;13.87;;
21543;SDS011;10933;50.754;11.508;2022-11-27T08:53:23;95.40;;;20.30;;
21543;SDS011;10933;50.754;11.508;2022-11-27T08:55:50;78.13;;;12.13;;
21543;SDS011;10933;50.754;11.508;2022-11-27T08:58:16;151.27;;;14.60;;
21543;SDS011;10933;50.754;11.508;2022-11-27T09:00:42;43.50;;;13.37;;
21543;SDS011;10933;50.754;11.508;2022-11-27T09:03:09;82.70;;;10.83;;
21543;SDS011;10933;50.754;11.508;2022-11-27T09:05:39;125.73;;;12.90;;
21543;SDS011;10933;50.754;11.508;2022-11-27T09:08:08;54.20;;;11.47;;
21543;SDS011;10933;50.754;11.508;2022-11-27T09:10:36;69.50;;;14.93;;
21543;SDS011;10933;50.754;11.508;2022-11-27T09:13:02;67.10;;;17.37;;
21543;SDS011;10933;50.754;11.508;2022-11-27T09:15:29;67.17;;;16.13;;
21543;SDS011;10933;50.754;11.508;2022-11-27T09:17:55;73.13;;;15.33;;
21543;SDS011;10933;50.754;11.508;2022-11-27T09:20:22;78.43;;;11.63;;
21543;SDS011;10933;50.754;11.508;2022-11-27T09:22:48;74.37;;;10.90;;
21543;SDS011;10933;50.754;11.508;2022-11-27T09:25:14;24.87;;;11.97;;
21543;SDS011;10933;50.754;11.508;2022-11-27T09:27:41;56.67;;;13.23;;
21543;SDS011;10933;50.754;11.508;2022-11-27T09:30:10;67.93;;;15.37;;
21543;SDS011;10933;50.754;11.508;2022-11-27T09:32:37;129.50;;;40.30;;
21543;SDS011;10933;50.754;11.508;2022-11-27T09:35:03;95.13;;;19.27;;
21543;SDS011;10933;50.754;11.508;2022-11-27T09:37:30;57.30;;;20.40;;
21543;SDS011;10933;50.754;11.508;2022-11-27T09:39:56;81.60;;;28.50;;
21543;SDS011;10933;50.754;11.508;2022-11-27T09:42:39;123.37;;;24.87;;
21543;SDS011;10933;50.754;11.508;2022-11-27T09:45:13;64.23;;;19.40;;
21543;SDS011;10933;50.754;11.508;2022-11-27T09:47:48;104.40;;;22.70;;
21543;SDS011;10933;50.754;11.508;2022-11-27T09:50:24;83.13;;;19.43;;
21543;SDS011;10933;50.754;11.508;2022-11-27T09:55:45;29.10;;;14.60;;
21543;SDS011;10933;50.754;11.508;2022-11-27T10:00:52;34.53;;;13.13;;
21543;SDS011;10933;50.754;11.508;2022-11-27T10:03:23;22.13;;;14.57;;
21543;SDS011;10933;50.754;11.508;2022-11-27T10:08:57;24.97;;;13.07;;
21543;SDS011;10933;50.754;11.508;2022-11-27T10:14:05;40.97;;;15.13;;
21543;SDS011;10933;50.754;11.508;2022-11-27T10:19:50;17.37;;;15.87;;
21543;SDS011;10933;50.754;11.508;2022-11-27T10:27:39;31.37;;;13.50;;
21543;SDS011;10933;50.754;11.508;2022-11-27T10:30:14;21.10;;;17.27;;
21543;SDS011;10933;50.754;11.508;2022-11-27T10:32:41;21.57;;;19.43;;
21543;SDS011;10933;50.754;11.508;2022-11-27T10:35:15;16.97;;;15.50;;
21543;SDS011;10933;50.754;11.508;2022-11-27T10:40:30;48.77;;;13.50;;
21543;SDS011;10933;50.754;11.508;2022-11-27T10:43:20;25.77;;;10.33;;
21543;SDS011;10933;50.754;11.508;2022-11-27T10:45:49;15.03;;;14.03;;
21543;SDS011;10933;50.754;11.508;2022-11-27T10:48:35;15.90;;;14.27;;
21543;SDS011;10933;50.754;11.508;2022-11-27T10:51:01;16.07;;;14.70;;
21543;SDS011;10933;50.754;11.508;2022-11-27T10:53:31;23.03;;;12.73;;
21543;SDS011;10933;50.754;11.508;2022-11-27T10:58:56;14.87;;;13.77;;
21543;SDS011;10933;50.754;11.508;2022-11-27T11:01:56;11.23;;;10.52;;
21543;SDS011;10933;50.754;11.508;2022-11-27T11:04:27;11.13;;;10.45;;
21543;SDS011;10933;50.754;11.508;2022-11-27T11:06:55;17.77;;;16.00;;
21543;SDS011;10933;50.754;11.508;2022-11-27T11:11:48;40.95;;;32.38;;
21543;SDS011;10933;50.754;11.508;2022-11-27T11:14:18;14.88;;;13.98;;
21543;SDS011;10933;50.754;11.508;2022-11-27T11:16:50;11.80;;;11.10;;
21543;SDS011;10933;50.754;11.508;2022-11-27T11:19:21;17.15;;;15.73;;
21543;SDS011;10933;50.754;11.508;2022-11-27T11:21:56;12.10;;;11.40;;
21543;SDS011;10933;50.754;11.508;2022-11-27T11:24:26;15.85;;;14.75;;
21543;SDS011;10933;50.754;11.508;2022-11-27T11:26:58;27.48;;;23.42;;
21543;SDS011;10933;50.754;11.508;2022-11-27T11:29:31;56.50;;;40.28;;
21543;SDS011;10933;50.754;11.508;2022-11-27T11:32:06;22.85;;;20.65;;
21543;SDS011;10933;50.754;11.508;2022-11-27T11:34:40;15.05;;;14.15;;
21543;SDS011;10933;50.754;11.508;2022-11-27T11:37:43;11.80;;;11.10;;
21543;SDS011;10933;50.754;11.508;2022-11-27T11:42:54;10.65;;;10.05;;
21543;SDS011;10933;50.754;11.508;2022-11-27T11:45:22;11.02;;;10.32;;
21543;SDS011;10933;50.754;11.508;2022-11-27T11:47:52;10.60;;;10.00;;
21543;SDS011;10933;50.754;11.508;2022-11-27T11:50:26;16.00;;;14.65;;
21543;SDS011;10933;50.754;11.508;2022-11-27T11:58:37;13.23;;;12.15;;
21543;SDS011;10933;50.754;11.508;2022-11-27T12:04:30;10.15;;;9.55;;
21543;SDS011;10933;50.754;11.508;2022-11-27T12:16:16;14.48;;;13.50;;
21543;SDS011;10933;50.754;11.508;2022-11-27T12:21:58;11.82;;;11.07;;
21543;SDS011;10933;50.754;11.508;2022-11-27T12:24:38;11.85;;;10.95;;
21543;SDS011;10933;50.754;11.508;2022-11-27T12:27:22;28.67;;;25.70;;
21543;SDS011;10933;50.754;11.508;2022-11-27T12:30:21;11.70;;;10.83;;
21543;SDS011;10933;50.754;11.508;2022-11-27T12:33:01;14.53;;;13.60;;
21543;SDS011;10933;50.754;11.508;2022-11-27T12:43:49;9.03;;;8.43;;
21543;SDS011;10933;50.754;11.508;2022-11-27T12:46:32;11.73;;;10.73;;
21543;SDS011;10933;50.754;11.508;2022-11-27T12:49:14;9.30;;;8.67;;
21543;SDS011;10933;50.754;11.508;2022-11-27T12:51:47;9.03;;;8.17;;
21543;SDS011;10933;50.754;11.508;2022-11-27T12:56:59;8.63;;;8.03;;
21543;SDS011;10933;50.754;11.508;2022-11-27T13:02:23;15.60;;;14.47;;
21543;SDS011;10933;50.754;11.508;2022-11-27T13:05:02;6.40;;;6.00;;
21543;SDS011;10933;50.754;11.508;2022-11-27T13:12:48;18.27;;;16.53;;
21543;SDS011;10933;50.754;11.508;2022-11-27T13:15:41;4.87;;;4.50;;
21543;SDS011;10933;50.754;11.508;2022-11-27T13:18:40;9.17;;;8.47;;
21543;SDS011;10933;50.754;11.508;2022-11-27T13:21:26;12.50;;;11.43;;
21543;SDS011;10933;50.754;11.508;2022-11-27T13:23:54;13.67;;;12.67;;
21543;SDS011;10933;50.754;11.508;2022-11-27T13:26:26;10.20;;;9.33;;
21543;SDS011;10933;50.754;11.508;2022-11-27T13:29:06;11.20;;;10.20;;
21543;SDS011;10933;50.754;11.508;2022-11-27T13:31:57;8.10;;;7.60;;
21543;SDS011;10933;50.754;11.508;2022-11-27T13:34:27;57.60;;;30.33;;
21543;SDS011;10933;50.754;11.508;2022-11-27T13:36:58;69.97;;;30.03;;
21543;SDS011;10933;50.754;11.508;2022-11-27T13:39:33;86.37;;;34.47;;
21543;SDS011;10933;50.754;11.508;2022-11-27T13:45:47;88.90;;;32.67;;
21543;SDS011;10933;50.754;11.508;2022-11-27T13:47:47;436.33;;;226.67;;
21543;SDS011;10933;50.754;11.508;2022-11-27T13:50:15;8.23;;;7.50;;
21543;SDS011;10933;50.754;11.508;2022-11-27T13:55:22;4.33;;;3.93;;
21543;SDS011;10933;50.754;11.508;2022-11-27T13:57:58;4.97;;;4.67;;
21543;SDS011;10933;50.754;11.508;2022-11-27T14:00:41;6.60;;;3.90;;
21543;SDS011;10933;50.754;11.508;2022-11-27T14:03:28;4.20;;;3.80;;
21543;SDS011;10933;50.754;11.508;2022-11-27T14:05:55;4.10;;;3.80;;
21543;SDS011;10933;50.754;11.508;2022-11-27T14:08:23;4.10;;;3.80;;
21543;SDS011;10933;50.754;11.508;2022-11-27T14:11:09;4.40;;;4.00;;
21543;SDS011;10933;50.754;11.508;2022-11-27T14:13:41;4.37;;;4.07;;
21543;SDS011;10933;50.754;11.508;2022-11-27T14:16:23;5.07;;;4.67;;
21543;SDS011;10933;50.754;11.508;2022-11-27T14:18:59;7.73;;;7.13;;
21543;SDS011;10933;50.754;11.508;2022-11-27T14:21:36;8.67;;;7.83;;
21543;SDS011;10933;50.754;11.508;2022-11-27T14:26:50;8.77;;;8.07;;
21543;SDS011;10933;50.754;11.508;2022-11-27T14:29:21;9.47;;;8.77;;
21543;SDS011;10933;50.754;11.508;2022-11-27T14:31:55;11.10;;;10.30;;
21543;SDS011;10933;50.754;11.508;2022-11-27T14:34:27;12.73;;;11.47;;
21543;SDS011;10933;50.754;11.508;2022-11-27T14:36:57;49.80;;;28.10;;
21543;SDS011;10933;50.754;11.508;2022-11-27T14:39:27;99.47;;;47.33;;
21543;SDS011;10933;50.754;11.508;2022-11-27T14:42:02;9.33;;;8.63;;
21543;SDS011;10933;50.754;11.508;2022-11-27T14:44:30;8.97;;;8.27;;
21543;SDS011;10933;50.754;11.508;2022-11-27T14:46:58;9.33;;;8.63;;
21543;SDS011;10933;50.754;11.508;2022-11-27T14:49:27;11.23;;;10.20;;
21543;SDS011;10933;50.754;11.508;2022-11-27T14:51:56;11.03;;;10.23;;
21543;SDS011;10933;50.754;11.508;2022-11-27T14:54:38;12.47;;;11.63;;
21543;SDS011;10933;50.754;11.508;2022-11-27T14:57:05;17.93;;;16.63;;
21543;SDS011;10933;50.754;11.508;2022-11-27T14:59:38;10.60;;;9.90;;
21543;SDS011;10933;50.754;11.508;2022-11-27T15:04:37;7.73;;;7.07;;
21543;SDS011;10933;50.754;11.508;2022-11-27T15:09:46;6.20;;;5.80;;
21543;SDS011;10933;50.754;11.508;2022-11-27T15:14:49;9.27;;;8.57;;
21543;SDS011;10933;50.754;11.508;2022-11-27T15:17:24;8.40;;;7.80;;
21543;SDS011;10933;50.754;11.508;2022-11-27T15:19:55;6.97;;;5.63;;
21543;SDS011;10933;50.754;11.508;2022-11-27T15:22:22;6.87;;;6.47;;
21543;SDS011;10933;50.754;11.508;2022-11-27T15:25:01;7.83;;;7.33;;
21543;SDS011;10933;50.754;11.508;2022-11-27T15:27:31;7.40;;;6.10;;
21543;SDS011;10933;50.754;11.508;2022-11-27T15:32:46;7.90;;;7.40;;
21543;SDS011;10933;50.754;11.508;2022-11-27T15:35:24;44.10;;;23.90;;
21543;SDS011;10933;50.754;11.508;2022-11-27T15:37:52;42.67;;;23.53;;
21543;SDS011;10933;50.754;11.508;2022-11-27T15:40:34;78.30;;;36.53;;
21543;SDS011;10933;50.754;11.508;2022-11-27T15:43:09;103.27;;;40.77;;
21543;SDS011;10933;50.754;11.508;2022-11-27T15:45:37;15.67;;;13.03;;
21543;SDS011;10933;50.754;11.508;2022-11-27T15:48:04;8.50;;;7.57;;
21543;SDS011;10933;50.754;11.508;2022-11-27T15:50:37;14.47;;;13.00;;
21543;SDS011;10933;50.754;11.508;2022-11-27T15:53:03;28.40;;;19.20;;
21543;SDS011;10933;50.754;11.508;2022-11-27T15:55:30;42.70;;;22.13;;
21543;SDS011;10933;50.754;11.508;2022-11-27T15:57:57;59.63;;;29.03;;
21543;SDS011;10933;50.754;11.508;2022-11-27T16:00:23;62.97;;;30.33;;
21543;SDS011;10933;50.754;11.508;2022-11-27T16:02:50;63.00;;;29.20;;
21543;SDS011;10933;50.754;11.508;2022-11-27T16:05:18;64.00;;;31.33;;
21543;SDS011;10933;50.754;11.508;2022-11-27T16:07:45;49.43;;;24.43;;
21543;SDS011;10933;50.754;11.508;2022-11-27T16:10:11;14.47;;;12.63;;
21543;SDS011;10933;50.754;11.508;2022-11-27T16:12:37;44.33;;;23.13;;
21543;SDS011;10933;50.754;11.508;2022-11-27T16:15:06;47.53;;;27.83;;
21543;SDS011;10933;50.754;11.508;2022-11-27T16:17:33;63.83;;;30.90;;
21543;SDS011;10933;50.754;11.508;2022-11-27T16:20:00;47.40;;;26.30;;
21543;SDS011;10933;50.754;11.508;2022-11-27T16:22:26;49.97;;;29.13;;
21543;SDS011;10933;50.754;11.508;2022-11-27T16:24:52;62.13;;;30.10;;
21543;SDS011;10933;50.754;11.508;2022-11-27T16:27:19;32.17;;;19.63;;